Tasman Sea — WDB5559 — position and weather

sailwx.info

Track history (hours):
 
Tides and Currents Weather Stations Pressure Air Temp Water Temp Dewpoint Dewpoint Depression Visibility Wind Speed Wind Dir Waves Ship Positions

Tasman Sea

Owner: Kirby Offshore Marine, LLC, Staten Island, NY. More information available from US FCC via Universal Licensing System and Coast Guard Vessel Documentation Center.

Last reported at 2017-Mar-23 05:32 UTC. Time now 2017-Mar-23 12:32 UTC.
Position N 40°33' W 074°02'.

Length 151 m; draft 6.3 m.

Type: . MMSI: 366910960.

Date/timePositionNaut miles runAvg speedWind from/ knotsBaromVisibWave heightAir tempDewpointWater temp
2017-Mar-23 05:32N 40°33' W 074°02'7 6.7
2017-Mar-23 04:33N 40°39' W 074°05'6 5.7
2017-Mar-23 03:33N 40°38' W 074°12'5 2.6
2017-Mar-23 01:31N 40°33' W 074°15'7 7.3
2017-Mar-23 00:33N 40°38' W 074°10'0 0.0
2017-Mar-22 23:33N 40°38' W 074°10'0 0.0
2017-Mar-22 22:33N 40°38' W 074°10'0 0.0
2017-Mar-22 21:33N 40°38' W 074°10'0 0.0
2017-Mar-22 20:33N 40°38' W 074°10'0 0.0
2017-Mar-22 19:33N 40°38' W 074°10'0 0.0
2017-Mar-22 18:33N 40°38' W 074°10'0 0.1
2017-Mar-22 17:33N 40°39' W 074°10'0 0.0
2017-Mar-22 16:33N 40°39' W 074°10'7 0.9
2017-Mar-22 08:23N 40°33' W 074°15'8 4.2
2017-Mar-22 06:22N 40°29' W 074°05'8 8.2
2017-Mar-22 05:24N 40°27' W 073°55'180 7.5
2017-Mar-21 05:30N 41°60' W 070°30'6 6.5
2017-Mar-21 04:32N 42°06' W 070°33'7 7.0
2017-Mar-21 03:33N 42°12' W 070°38'7 7.5
2017-Mar-21 02:33N 42°18' W 070°43'8 7.7
2017-Mar-21 01:33N 42°23' W 070°51'6 5.6
2017-Mar-21 00:33N 42°20' W 070°58'0 0.1
2017-Mar-20 23:33N 42°20' W 070°58'0 0.1
2017-Mar-20 22:30N 42°21' W 070°58'0 0.1
2017-Mar-20 21:33N 42°20' W 070°58'0 0.0
2017-Mar-20 20:33N 42°20' W 070°58'0 0.1
2017-Mar-20 19:33N 42°20' W 070°58'0 0.1
2017-Mar-20 18:33N 42°20' W 070°58'0 0.0
2017-Mar-20 17:33N 42°20' W 070°58'0 0.0
2017-Mar-20 16:33N 42°20' W 070°58'0 0.0
2017-Mar-20 15:33N 42°20' W 070°58'0 0.0
2017-Mar-20 14:33N 42°20' W 070°58'4 4.1
2017-Mar-20 13:33N 42°22' W 071°03'2 0.4
2017-Mar-20 08:23N 42°24' W 071°01'0 0.0
2017-Mar-20 07:29N 42°24' W 071°01'0 0.0
2017-Mar-20 06:11N 42°24' W 071°01'0 0.0
2017-Mar-20 05:23N 42°24' W 071°01'0 0.0
2017-Mar-20 04:20N 42°24' W 071°01'0 0.0
2017-Mar-20 03:23N 42°24' W 071°01'0 0.0
2017-Mar-20 02:23N 42°24' W 071°01'0 0.0
2017-Mar-20 01:32N 42°24' W 071°01'0 0.0
2017-Mar-20 00:32N 42°24' W 071°01'0 0.0
2017-Mar-19 23:26N 42°24' W 071°01'0 0.1
2017-Mar-19 22:29N 42°24' W 071°01'0 0.0
2017-Mar-19 21:32N 42°24' W 071°01'0 0.0
2017-Mar-19 20:32N 42°24' W 071°01'0 0.0
2017-Mar-19 19:32N 42°24' W 071°01'0 0.0
2017-Mar-19 18:32N 42°24' W 071°01'0 0.0
2017-Mar-19 17:26N 42°24' W 071°01'0 0.0
2017-Mar-19 16:26N 42°24' W 071°01'0 0.0
2017-Mar-19 15:20N 42°24' W 071°01'0 0.0
2017-Mar-19 14:32N 42°24' W 071°01'0 0.0
2017-Mar-19 13:29N 42°24' W 071°01'0 0.0
2017-Mar-19 12:32N 42°24' W 071°01'0 0.0
2017-Mar-19 11:32N 42°24' W 071°01'0 0.0
2017-Mar-19 10:26N 42°24' W 071°01'0 0.0
2017-Mar-19 06:26N 42°24' W 071°01'0 0.0
2017-Mar-19 05:26N 42°24' W 071°01'0 0.0
2017-Mar-19 04:29N 42°24' W 071°01'0 0.0
2017-Mar-19 03:29N 42°24' W 071°01'0 0.0
2017-Mar-19 02:29N 42°24' W 071°01'0 0.0
2017-Mar-19 01:23N 42°24' W 071°01'0 0.1
2017-Mar-19 00:32N 42°24' W 071°01'2 2.5
2017-Mar-18 23:34N 42°22' W 071°02'0 0.1
2017-Mar-18 22:31N 42°21' W 071°02'0 0.0
2017-Mar-18 21:31N 42°21' W 071°02'0 0.1
2017-Mar-18 20:31N 42°21' W 071°02'0 0.0
2017-Mar-18 19:31N 42°21' W 071°02'0 0.0
2017-Mar-18 18:31N 42°22' W 071°02'0 0.0
2017-Mar-18 17:31N 42°22' W 071°02'0 0.0
2017-Mar-18 16:31N 42°21' W 071°02'0 0.0
2017-Mar-18 15:31N 42°21' W 071°02'0 0.0
2017-Mar-18 14:31N 42°21' W 071°02'0 0.1
2017-Mar-18 13:31N 42°21' W 071°02'0 0.1
2017-Mar-18 12:31N 42°21' W 071°02'0 0.0
2017-Mar-18 11:31N 42°21' W 071°02'0 0.0
2017-Mar-18 10:31N 42°21' W 071°02'0 0.0
2017-Mar-18 09:32N 42°21' W 071°02'0 0.0
2017-Mar-18 08:31N 42°21' W 071°02'0 0.0
2017-Mar-18 07:31N 42°21' W 071°02'0 0.1
2017-Mar-18 06:31N 42°21' W 071°02'0 0.0
2017-Mar-18 05:31N 42°21' W 071°02'0 0.1
2017-Mar-18 04:31N 42°21' W 071°02'0 0.0
2017-Mar-18 03:31N 42°21' W 071°02'0 0.0
2017-Mar-18 02:31N 42°21' W 071°02'0 0.0
2017-Mar-18 01:31N 42°21' W 071°02'0 0.0
2017-Mar-18 00:28N 42°21' W 071°02'0 0.0
2017-Mar-17 23:31N 42°21' W 071°02'0 0.0
2017-Mar-17 22:31N 42°21' W 071°02'0 0.0
2017-Mar-17 21:31N 42°21' W 071°02'0 0.0
2017-Mar-17 20:31N 42°21' W 071°02'0 0.0
2017-Mar-17 19:31N 42°21' W 071°02'0 0.0
2017-Mar-17 18:28N 42°21' W 071°02'0 0.0
2017-Mar-17 17:31N 42°21' W 071°02'0 0.0
2017-Mar-17 16:31N 42°21' W 071°02'0 0.0
2017-Mar-17 15:31N 42°21' W 071°02'0 0.0
2017-Mar-17 14:31N 42°21' W 071°02'0 0.0
2017-Mar-17 13:31N 42°21' W 071°02'0 0.0
2017-Mar-17 12:31N 42°21' W 071°02'0 0.0
2017-Mar-17 11:25N 42°21' W 071°02'0 0.0
2017-Mar-17 10:31N 42°21' W 071°02'0 0.0
2017-Mar-17 09:31N 42°21' W 071°02'0 0.0
2017-Mar-17 08:31N 42°21' W 071°02'0 0.0
2017-Mar-17 07:31N 42°21' W 071°02'0 0.0
2017-Mar-17 06:31N 42°21' W 071°02'0 0.0
2017-Mar-17 05:31N 42°21' W 071°02'0 0.0
2017-Mar-17 04:31N 42°21' W 071°02'0 0.0
2017-Mar-17 03:31N 42°21' W 071°02'0 0.0
2017-Mar-17 02:31N 42°21' W 071°02'0 0.0
2017-Mar-17 01:31N 42°21' W 071°02'0 0.0
2017-Mar-17 00:31N 42°21' W 071°02'0 0.0
2017-Mar-16 23:31N 42°21' W 071°02'0 0.0
2017-Mar-16 22:28N 42°21' W 071°02'0 0.0
2017-Mar-16 21:28N 42°21' W 071°02'0 0.0
2017-Mar-16 20:28N 42°21' W 071°02'0 0.0
2017-Mar-16 19:31N 42°21' W 071°02'0 0.0
2017-Mar-16 18:31N 42°21' W 071°02'0 0.0
2017-Mar-16 17:31N 42°21' W 071°02'0 0.0
2017-Mar-16 16:31N 42°21' W 071°02'0 0.0
2017-Mar-16 15:31N 42°21' W 071°02'0 0.0
2017-Mar-16 14:31N 42°21' W 071°02'0 0.0
2017-Mar-16 13:31N 42°21' W 071°02'0 0.0
2017-Mar-16 12:31N 42°21' W 071°02'0 0.0
2017-Mar-16 11:31N 42°21' W 071°02'0 0.0
2017-Mar-16 10:31N 42°21' W 071°02'0 0.0
2017-Mar-16 09:31N 42°21' W 071°02'0 0.0
2017-Mar-16 08:31N 42°21' W 071°02'0 0.0
2017-Mar-16 07:31N 42°21' W 071°02'0 0.0
2017-Mar-16 06:31N 42°21' W 071°02'0 0.0
2017-Mar-16 05:31N 42°21' W 071°02'0 0.0
2017-Mar-16 04:31N 42°21' W 071°02'0 0.0
2017-Mar-16 03:28N 42°21' W 071°02'0 0.0
2017-Mar-16 02:31N 42°21' W 071°02'0 0.0
2017-Mar-16 01:31N 42°21' W 071°02'0 0.0
2017-Mar-16 00:31N 42°21' W 071°02'0 0.0
2017-Mar-15 23:31N 42°21' W 071°02'0 0.0
2017-Mar-15 22:31N 42°21' W 071°02'0 0.0
2017-Mar-15 21:31N 42°21' W 071°02'0 0.0
2017-Mar-15 20:31N 42°21' W 071°02'0 0.0
2017-Mar-15 19:31N 42°21' W 071°02'0 0.0
2017-Mar-15 18:31N 42°21' W 071°02'0 0.1
2017-Mar-15 17:31N 42°22' W 071°02'0 0.0
2017-Mar-15 16:31N 42°21' W 071°02'0 0.0
2017-Mar-15 15:31N 42°22' W 071°02'0 0.0
2017-Mar-15 14:31N 42°22' W 071°02'0 0.0
2017-Mar-15 13:31N 42°21' W 071°02'0 0.0
2017-Mar-15 12:31N 42°21' W 071°02'0 0.0
2017-Mar-15 11:31N 42°21' W 071°02'0 0.0
2017-Mar-15 10:31N 42°21' W 071°02'0 0.0
2017-Mar-15 09:31N 42°21' W 071°02'0 0.0
2017-Mar-15 08:31N 42°21' W 071°02'0 0.0
2017-Mar-15 07:31N 42°21' W 071°02'0 0.0
2017-Mar-15 06:31N 42°21' W 071°02'0 0.0
2017-Mar-15 05:31N 42°21' W 071°02'0 0.0
2017-Mar-15 04:31N 42°21' W 071°02'0 0.0
2017-Mar-15 03:31N 42°21' W 071°02'0 0.0
2017-Mar-15 02:31N 42°21' W 071°02'0 0.0
2017-Mar-15 01:34N 42°21' W 071°02'0 0.0
2017-Mar-15 00:33N 42°21' W 071°02'0 0.1
2017-Mar-14 23:31N 42°21' W 071°02'0 0.0
2017-Mar-14 22:34N 42°21' W 071°02'0 0.0
2017-Mar-14 21:31N 42°21' W 071°02'0 0.0
2017-Mar-14 20:31N 42°21' W 071°02'0 0.0
2017-Mar-14 19:34N 42°21' W 071°02'0 0.0
2017-Mar-14 18:31N 42°21' W 071°02'0 0.0
2017-Mar-14 17:31N 42°21' W 071°02'0 0.0
2017-Mar-14 16:31N 42°21' W 071°02'0 0.0
2017-Mar-14 15:34N 42°21' W 071°02'0 0.0
2017-Mar-14 14:34N 42°21' W 071°02'0 0.0
2017-Mar-14 13:30N 42°21' W 071°02'0 0.1
2017-Mar-14 12:33N 42°21' W 071°02'0 0.0
2017-Mar-14 11:33N 42°21' W 071°02'0 0.1
2017-Mar-14 10:33N 42°21' W 071°02'0 0.1
2017-Mar-14 09:34N 42°22' W 071°02'0 0.0
2017-Mar-14 08:33N 42°21' W 071°02'0 0.0
2017-Mar-14 07:33N 42°21' W 071°02'0 0.1
2017-Mar-14 06:33N 42°22' W 071°02'0 0.1
2017-Mar-14 05:30N 42°22' W 071°02'0 0.1
2017-Mar-14 04:33N 42°22' W 071°02'0 0.0
2017-Mar-14 03:30N 42°22' W 071°02'0 0.0
2017-Mar-14 02:33N 42°22' W 071°02'0 0.0
2017-Mar-14 01:33N 42°22' W 071°02'0 0.0
2017-Mar-14 00:30N 42°22' W 071°02'0 0.0
2017-Mar-13 23:33N 42°22' W 071°02'0 0.2
2017-Mar-13 22:33N 42°22' W 071°02'0 0.1
2017-Mar-13 21:30N 42°22' W 071°02'0 0.2
2017-Mar-13 20:33N 42°21' W 071°02'0 0.0
2017-Mar-13 19:33N 42°21' W 071°02'0 0.0
2017-Mar-13 18:33N 42°21' W 071°02'0 0.0
2017-Mar-13 17:33N 42°21' W 071°02'0 0.0
2017-Mar-13 16:33N 42°21' W 071°02'0 0.0
2017-Mar-13 15:33N 42°21' W 071°02'0 0.0
2017-Mar-13 14:33N 42°21' W 071°02'0 0.0
2017-Mar-13 13:33N 42°21' W 071°02'0 0.0
2017-Mar-13 12:33N 42°21' W 071°02'0 0.0
2017-Mar-13 11:33N 42°21' W 071°02'0 0.0
2017-Mar-13 10:33N 42°21' W 071°02'0 0.0
2017-Mar-13 09:33N 42°21' W 071°02'0 0.0
2017-Mar-13 08:33N 42°21' W 071°02'0 0.0
2017-Mar-13 07:33N 42°21' W 071°02'0 0.0
2017-Mar-13 06:33N 42°21' W 071°02'0 0.0
2017-Mar-13 05:33N 42°21' W 071°02'  
Track history (hours):
 
Tides and Currents Weather Stations Pressure Air Temp Water Temp Dewpoint Dewpoint Depression Visibility Wind Speed Wind Dir Waves Ship Positions

Tasman Sea

Owner: Kirby Offshore Marine, LLC, Staten Island, NY. More information available from US FCC via Universal Licensing System and Coast Guard Vessel Documentation Center.

Last reported at 2017-Mar-23 05:32 UTC. Time now 2017-Mar-23 12:32 UTC.
Position N 40°33' W 074°02'.

Length 151 m; draft 6.3 m.

Type: . MMSI: 366910960.

Date/timePositionNaut miles runAvg speedWind from/ knotsBaromVisibWave heightAir tempDewpointWater temp
2017-Mar-23 05:32N 40°33' W 074°02'7 6.7
2017-Mar-23 04:33N 40°39' W 074°05'6 5.7
2017-Mar-23 03:33N 40°38' W 074°12'5 2.6
2017-Mar-23 01:31N 40°33' W 074°15'7 7.3
2017-Mar-23 00:33N 40°38' W 074°10'0 0.0
2017-Mar-22 23:33N 40°38' W 074°10'0 0.0
2017-Mar-22 22:33N 40°38' W 074°10'0 0.0
2017-Mar-22 21:33N 40°38' W 074°10'0 0.0
2017-Mar-22 20:33N 40°38' W 074°10'0 0.0
2017-Mar-22 19:33N 40°38' W 074°10'0 0.0
2017-Mar-22 18:33N 40°38' W 074°10'0 0.1
2017-Mar-22 17:33N 40°39' W 074°10'0 0.0
2017-Mar-22 16:33N 40°39' W 074°10'7 0.9
2017-Mar-22 08:23N 40°33' W 074°15'8 4.2
2017-Mar-22 06:22N 40°29' W 074°05'8 8.2
2017-Mar-22 05:24N 40°27' W 073°55'180 7.5
2017-Mar-21 05:30N 41°60' W 070°30'6 6.5
2017-Mar-21 04:32N 42°06' W 070°33'7 7.0
2017-Mar-21 03:33N 42°12' W 070°38'7 7.5
2017-Mar-21 02:33N 42°18' W 070°43'8 7.7
2017-Mar-21 01:33N 42°23' W 070°51'6 5.6
2017-Mar-21 00:33N 42°20' W 070°58'0 0.1
2017-Mar-20 23:33N 42°20' W 070°58'0 0.1
2017-Mar-20 22:30N 42°21' W 070°58'0 0.1
2017-Mar-20 21:33N 42°20' W 070°58'0 0.0
2017-Mar-20 20:33N 42°20' W 070°58'0 0.1
2017-Mar-20 19:33N 42°20' W 070°58'0 0.1
2017-Mar-20 18:33N 42°20' W 070°58'0 0.0
2017-Mar-20 17:33N 42°20' W 070°58'0 0.0
2017-Mar-20 16:33N 42°20' W 070°58'0 0.0
2017-Mar-20 15:33N 42°20' W 070°58'0 0.0
2017-Mar-20 14:33N 42°20' W 070°58'4 4.1
2017-Mar-20 13:33N 42°22' W 071°03'2 0.4
2017-Mar-20 08:23N 42°24' W 071°01'0 0.0
2017-Mar-20 07:29N 42°24' W 071°01'0 0.0
2017-Mar-20 06:11N 42°24' W 071°01'0 0.0
2017-Mar-20 05:23N 42°24' W 071°01'0 0.0
2017-Mar-20 04:20N 42°24' W 071°01'0 0.0
2017-Mar-20 03:23N 42°24' W 071°01'0 0.0
2017-Mar-20 02:23N 42°24' W 071°01'0 0.0
2017-Mar-20 01:32N 42°24' W 071°01'0 0.0
2017-Mar-20 00:32N 42°24' W 071°01'0 0.0
2017-Mar-19 23:26N 42°24' W 071°01'0 0.1
2017-Mar-19 22:29N 42°24' W 071°01'0 0.0
2017-Mar-19 21:32N 42°24' W 071°01'0 0.0
2017-Mar-19 20:32N 42°24' W 071°01'0 0.0
2017-Mar-19 19:32N 42°24' W 071°01'0 0.0
2017-Mar-19 18:32N 42°24' W 071°01'0 0.0
2017-Mar-19 17:26N 42°24' W 071°01'0 0.0
2017-Mar-19 16:26N 42°24' W 071°01'0 0.0
2017-Mar-19 15:20N 42°24' W 071°01'0 0.0
2017-Mar-19 14:32N 42°24' W 071°01'0 0.0
2017-Mar-19 13:29N 42°24' W 071°01'0 0.0
2017-Mar-19 12:32N 42°24' W 071°01'0 0.0
2017-Mar-19 11:32N 42°24' W 071°01'0 0.0
2017-Mar-19 10:26N 42°24' W 071°01'0 0.0
2017-Mar-19 06:26N 42°24' W 071°01'0 0.0
2017-Mar-19 05:26N 42°24' W 071°01'0 0.0
2017-Mar-19 04:29N 42°24' W 071°01'0 0.0
2017-Mar-19 03:29N 42°24' W 071°01'0 0.0
2017-Mar-19 02:29N 42°24' W 071°01'0 0.0
2017-Mar-19 01:23N 42°24' W 071°01'0 0.1
2017-Mar-19 00:32N 42°24' W 071°01'2 2.5
2017-Mar-18 23:34N 42°22' W 071°02'0 0.1
2017-Mar-18 22:31N 42°21' W 071°02'0 0.0
2017-Mar-18 21:31N 42°21' W 071°02'0 0.1
2017-Mar-18 20:31N 42°21' W 071°02'0 0.0
2017-Mar-18 19:31N 42°21' W 071°02'0 0.0
2017-Mar-18 18:31N 42°22' W 071°02'0 0.0
2017-Mar-18 17:31N 42°22' W 071°02'0 0.0
2017-Mar-18 16:31N 42°21' W 071°02'0 0.0
2017-Mar-18 15:31N 42°21' W 071°02'0 0.0
2017-Mar-18 14:31N 42°21' W 071°02'0 0.1
2017-Mar-18 13:31N 42°21' W 071°02'0 0.1
2017-Mar-18 12:31N 42°21' W 071°02'0 0.0
2017-Mar-18 11:31N 42°21' W 071°02'0 0.0
2017-Mar-18 10:31N 42°21' W 071°02'0 0.0
2017-Mar-18 09:32N 42°21' W 071°02'0 0.0
2017-Mar-18 08:31N 42°21' W 071°02'0 0.0
2017-Mar-18 07:31N 42°21' W 071°02'0 0.1
2017-Mar-18 06:31N 42°21' W 071°02'0 0.0
2017-Mar-18 05:31N 42°21' W 071°02'0 0.1
2017-Mar-18 04:31N 42°21' W 071°02'0 0.0
2017-Mar-18 03:31N 42°21' W 071°02'0 0.0
2017-Mar-18 02:31N 42°21' W 071°02'0 0.0
2017-Mar-18 01:31N 42°21' W 071°02'0 0.0
2017-Mar-18 00:28N 42°21' W 071°02'0 0.0
2017-Mar-17 23:31N 42°21' W 071°02'0 0.0
2017-Mar-17 22:31N 42°21' W 071°02'0 0.0
2017-Mar-17 21:31N 42°21' W 071°02'0 0.0
2017-Mar-17 20:31N 42°21' W 071°02'0 0.0
2017-Mar-17 19:31N 42°21' W 071°02'0 0.0
2017-Mar-17 18:28N 42°21' W 071°02'0 0.0
2017-Mar-17 17:31N 42°21' W 071°02'0 0.0
2017-Mar-17 16:31N 42°21' W 071°02'0 0.0
2017-Mar-17 15:31N 42°21' W 071°02'0 0.0
2017-Mar-17 14:31N 42°21' W 071°02'0 0.0
2017-Mar-17 13:31N 42°21' W 071°02'0 0.0
2017-Mar-17 12:31N 42°21' W 071°02'0 0.0
2017-Mar-17 11:25N 42°21' W 071°02'0 0.0
2017-Mar-17 10:31N 42°21' W 071°02'0 0.0
2017-Mar-17 09:31N 42°21' W 071°02'0 0.0
2017-Mar-17 08:31N 42°21' W 071°02'0 0.0
2017-Mar-17 07:31N 42°21' W 071°02'0 0.0
2017-Mar-17 06:31N 42°21' W 071°02'0 0.0
2017-Mar-17 05:31N 42°21' W 071°02'0 0.0
2017-Mar-17 04:31N 42°21' W 071°02'0 0.0
2017-Mar-17 03:31N 42°21' W 071°02'0 0.0
2017-Mar-17 02:31N 42°21' W 071°02'0 0.0
2017-Mar-17 01:31N 42°21' W 071°02'0 0.0
2017-Mar-17 00:31N 42°21' W 071°02'0 0.0
2017-Mar-16 23:31N 42°21' W 071°02'0 0.0
2017-Mar-16 22:28N 42°21' W 071°02'0 0.0
2017-Mar-16 21:28N 42°21' W 071°02'0 0.0
2017-Mar-16 20:28N 42°21' W 071°02'0 0.0
2017-Mar-16 19:31N 42°21' W 071°02'0 0.0
2017-Mar-16 18:31N 42°21' W 071°02'0 0.0
2017-Mar-16 17:31N 42°21' W 071°02'0 0.0
2017-Mar-16 16:31N 42°21' W 071°02'0 0.0
2017-Mar-16 15:31N 42°21' W 071°02'0 0.0
2017-Mar-16 14:31N 42°21' W 071°02'0 0.0
2017-Mar-16 13:31N 42°21' W 071°02'0 0.0
2017-Mar-16 12:31N 42°21' W 071°02'0 0.0
2017-Mar-16 11:31N 42°21' W 071°02'0 0.0
2017-Mar-16 10:31N 42°21' W 071°02'0 0.0
2017-Mar-16 09:31N 42°21' W 071°02'0 0.0
2017-Mar-16 08:31N 42°21' W 071°02'0 0.0
2017-Mar-16 07:31N 42°21' W 071°02'0 0.0
2017-Mar-16 06:31N 42°21' W 071°02'0 0.0
2017-Mar-16 05:31N 42°21' W 071°02'0 0.0
2017-Mar-16 04:31N 42°21' W 071°02'0 0.0
2017-Mar-16 03:28N 42°21' W 071°02'0 0.0
2017-Mar-16 02:31N 42°21' W 071°02'0 0.0
2017-Mar-16 01:31N 42°21' W 071°02'0 0.0
2017-Mar-16 00:31N 42°21' W 071°02'0 0.0
2017-Mar-15 23:31N 42°21' W 071°02'0 0.0
2017-Mar-15 22:31N 42°21' W 071°02'0 0.0
2017-Mar-15 21:31N 42°21' W 071°02'0 0.0
2017-Mar-15 20:31N 42°21' W 071°02'0 0.0
2017-Mar-15 19:31N 42°21' W 071°02'0 0.0
2017-Mar-15 18:31N 42°21' W 071°02'0 0.1
2017-Mar-15 17:31N 42°22' W 071°02'0 0.0
2017-Mar-15 16:31N 42°21' W 071°02'0 0.0
2017-Mar-15 15:31N 42°22' W 071°02'0 0.0
2017-Mar-15 14:31N 42°22' W 071°02'0 0.0
2017-Mar-15 13:31N 42°21' W 071°02'0 0.0
2017-Mar-15 12:31N 42°21' W 071°02'0 0.0
2017-Mar-15 11:31N 42°21' W 071°02'0 0.0
2017-Mar-15 10:31N 42°21' W 071°02'0 0.0
2017-Mar-15 09:31N 42°21' W 071°02'0 0.0
2017-Mar-15 08:31N 42°21' W 071°02'0 0.0
2017-Mar-15 07:31N 42°21' W 071°02'0 0.0
2017-Mar-15 06:31N 42°21' W 071°02'0 0.0
2017-Mar-15 05:31N 42°21' W 071°02'0 0.0
2017-Mar-15 04:31N 42°21' W 071°02'0 0.0
2017-Mar-15 03:31N 42°21' W 071°02'0 0.0
2017-Mar-15 02:31N 42°21' W 071°02'0 0.0
2017-Mar-15 01:34N 42°21' W 071°02'0 0.0
2017-Mar-15 00:33N 42°21' W 071°02'0 0.1
2017-Mar-14 23:31N 42°21' W 071°02'0 0.0
2017-Mar-14 22:34N 42°21' W 071°02'0 0.0
2017-Mar-14 21:31N 42°21' W 071°02'0 0.0
2017-Mar-14 20:31N 42°21' W 071°02'0 0.0
2017-Mar-14 19:34N 42°21' W 071°02'0 0.0
2017-Mar-14 18:31N 42°21' W 071°02'0 0.0
2017-Mar-14 17:31N 42°21' W 071°02'0 0.0
2017-Mar-14 16:31N 42°21' W 071°02'0 0.0
2017-Mar-14 15:34N 42°21' W 071°02'0 0.0
2017-Mar-14 14:34N 42°21' W 071°02'0 0.0
2017-Mar-14 13:30N 42°21' W 071°02'0 0.1
2017-Mar-14 12:33N 42°21' W 071°02'0 0.0
2017-Mar-14 11:33N 42°21' W 071°02'0 0.1
2017-Mar-14 10:33N 42°21' W 071°02'0 0.1
2017-Mar-14 09:34N 42°22' W 071°02'0 0.0
2017-Mar-14 08:33N 42°21' W 071°02'0 0.0
2017-Mar-14 07:33N 42°21' W 071°02'0 0.1
2017-Mar-14 06:33N 42°22' W 071°02'0 0.1
2017-Mar-14 05:30N 42°22' W 071°02'0 0.1
2017-Mar-14 04:33N 42°22' W 071°02'0 0.0
2017-Mar-14 03:30N 42°22' W 071°02'0 0.0
2017-Mar-14 02:33N 42°22' W 071°02'0 0.0
2017-Mar-14 01:33N 42°22' W 071°02'0 0.0
2017-Mar-14 00:30N 42°22' W 071°02'0 0.0
2017-Mar-13 23:33N 42°22' W 071°02'0 0.2
2017-Mar-13 22:33N 42°22' W 071°02'0 0.1
2017-Mar-13 21:30N 42°22' W 071°02'0 0.2
2017-Mar-13 20:33N 42°21' W 071°02'0 0.0
2017-Mar-13 19:33N 42°21' W 071°02'0 0.0
2017-Mar-13 18:33N 42°21' W 071°02'0 0.0
2017-Mar-13 17:33N 42°21' W 071°02'0 0.0
2017-Mar-13 16:33N 42°21' W 071°02'0 0.0
2017-Mar-13 15:33N 42°21' W 071°02'0 0.0
2017-Mar-13 14:33N 42°21' W 071°02'0 0.0
2017-Mar-13 13:33N 42°21' W 071°02'0 0.0
2017-Mar-13 12:33N 42°21' W 071°02'0 0.0
2017-Mar-13 11:33N 42°21' W 071°02'0 0.0
2017-Mar-13 10:33N 42°21' W 071°02'0 0.0
2017-Mar-13 09:33N 42°21' W 071°02'0 0.0
2017-Mar-13 08:33N 42°21' W 071°02'0 0.0
2017-Mar-13 07:33N 42°21' W 071°02'0 0.0
2017-Mar-13 06:33N 42°21' W 071°02'0 0.0
2017-Mar-13 05:33N 42°21' W 071°02'  

Dump ship's entire track history